createdAt,value
2023-01-30T00:00:42.452Z,12.03
2023-01-30T00:03:10.803Z,12.23
2023-01-30T00:05:39.167Z,14.80
2023-01-30T00:08:07.710Z,16.90
2023-01-30T00:10:36.905Z,12.60
2023-01-30T00:13:05.373Z,12.37
2023-01-30T00:15:40.473Z,12.00
2023-01-30T00:18:14.363Z,12.20
2023-01-30T00:20:42.899Z,11.73
2023-01-30T00:23:12.411Z,13.50
2023-01-30T00:25:46.503Z,11.70
2023-01-30T00:28:15.461Z,12.80
2023-01-30T00:30:44.042Z,12.17
2023-01-30T00:33:12.446Z,12.50
2023-01-30T00:35:46.102Z,12.63
2023-01-30T00:38:19.108Z,14.17
2023-01-30T00:40:48.532Z,14.83
2023-01-30T00:43:38.475Z,13.20
2023-01-30T00:46:48.546Z,11.87
2023-01-30T00:49:19.735Z,12.13
2023-01-30T00:51:48.597Z,14.00
2023-01-30T00:54:16.849Z,13.07
2023-01-30T00:56:45.129Z,13.00
2023-01-30T00:59:13.369Z,12.20
2023-01-30T01:01:41.671Z,9.10
2023-01-30T01:04:11.006Z,11.23
2023-01-30T01:06:40.442Z,14.27
2023-01-30T01:09:09.123Z,13.40
2023-01-30T01:11:40.221Z,12.13
2023-01-30T01:14:09.421Z,12.47
2023-01-30T01:16:37.950Z,10.13
2023-01-30T01:19:06.277Z,13.90
2023-01-30T01:21:34.883Z,15.30
2023-01-30T01:24:06.248Z,12.43
2023-01-30T01:26:36.006Z,13.50
2023-01-30T01:29:04.136Z,13.57
2023-01-30T01:31:32.688Z,12.60
2023-01-30T01:34:00.871Z,15.00
2023-01-30T01:36:52.597Z,13.43
2023-01-30T01:39:17.736Z,13.20
2023-01-30T01:41:46.997Z,13.27
2023-01-30T01:44:17.665Z,12.33
2023-01-30T01:47:00.146Z,13.07
2023-01-30T01:49:34.063Z,13.00
2023-01-30T01:52:16.827Z,14.30
2023-01-30T01:54:59.173Z,14.33
2023-01-30T01:57:37.281Z,14.53
2023-01-30T02:00:17.657Z,12.23
2023-01-30T02:03:14.550Z,15.77
2023-01-30T02:05:55.067Z,15.37
2023-01-30T02:08:35.867Z,15.23
2023-01-30T02:11:10.348Z,14.53
2023-01-30T02:13:39.748Z,13.40
2023-01-30T02:16:09.811Z,14.30
2023-01-30T02:18:46.887Z,15.30
2023-01-30T02:21:17.829Z,15.00
2023-01-30T02:23:54.778Z,15.47
2023-01-30T02:26:39.476Z,13.77
2023-01-30T02:29:33.805Z,20.50
2023-01-30T02:32:02.749Z,19.30
2023-01-30T02:34:50.885Z,21.30
2023-01-30T02:37:36.790Z,16.20
2023-01-30T02:40:42.529Z,14.17
2023-01-30T02:43:23.202Z,13.37
2023-01-30T02:46:33.963Z,15.80
2023-01-30T02:49:17.162Z,9.87
2023-01-30T02:51:46.923Z,12.83
2023-01-30T02:54:15.822Z,10.80
2023-01-30T02:56:48.025Z,15.67
2023-01-30T02:59:27.195Z,13.87
2023-01-30T03:02:08.931Z,13.87
2023-01-30T03:05:06.328Z,12.43
2023-01-30T03:07:58.655Z,15.67
2023-01-30T03:10:51.297Z,12.53
2023-01-30T03:13:48.542Z,11.47
2023-01-30T03:16:28.923Z,13.27
2023-01-30T03:19:03.914Z,13.63
2023-01-30T03:21:35.453Z,12.03
2023-01-30T03:24:03.430Z,15.33
2023-01-30T03:26:38.367Z,16.27
2023-01-30T03:29:06.913Z,14.20
2023-01-30T03:31:35.449Z,14.67
2023-01-30T03:34:03.860Z,17.30
2023-01-30T03:36:31.897Z,15.90
2023-01-30T03:39:00.137Z,15.57
2023-01-30T03:41:28.123Z,17.67
2023-01-30T03:43:56.364Z,17.37
2023-01-30T03:46:25.121Z,17.90
2023-01-30T03:48:53.085Z,17.97
2023-01-30T03:51:21.163Z,17.53
2023-01-30T03:53:54.044Z,17.53
2023-01-30T03:56:22.414Z,20.10
2023-01-30T03:58:52.311Z,18.90
2023-01-30T04:01:22.519Z,19.07
2023-01-30T04:03:53.612Z,21.60
2023-01-30T04:06:21.677Z,21.83
2023-01-30T04:08:53.507Z,19.33
2023-01-30T04:11:22.159Z,18.70
2023-01-30T04:13:50.717Z,18.07
2023-01-30T04:16:22.450Z,22.63
2023-01-30T04:18:50.854Z,21.50
2023-01-30T04:21:19.878Z,18.40
2023-01-30T04:23:48.294Z,23.40
2023-01-30T04:26:16.895Z,21.03
2023-01-30T04:28:44.893Z,19.13
2023-01-30T04:31:13.357Z,25.13
2023-01-30T04:33:42.145Z,26.13
2023-01-30T04:36:11.487Z,24.60
2023-01-30T04:38:42.225Z,24.20
2023-01-30T04:41:10.847Z,34.30
2023-01-30T04:43:39.315Z,42.83
2023-01-30T04:46:08.023Z,42.13
2023-01-30T04:48:36.661Z,35.77
2023-01-30T04:51:04.947Z,31.17
2023-01-30T04:53:33.380Z,31.23
2023-01-30T04:56:01.823Z,33.53
2023-01-30T04:58:30.436Z,33.57
2023-01-30T05:01:15.465Z,32.00
2023-01-30T05:03:44.212Z,33.77
2023-01-30T05:06:12.455Z,34.83
2023-01-30T05:08:40.743Z,33.47
2023-01-30T05:11:09.560Z,37.77
2023-01-30T05:13:37.768Z,29.53
2023-01-30T05:16:06.105Z,39.17
2023-01-30T05:18:34.391Z,29.97
2023-01-30T05:21:17.919Z,28.50
2023-01-30T05:23:46.185Z,34.50
2023-01-30T05:26:15.762Z,36.90
2023-01-30T05:28:44.545Z,31.33
2023-01-30T05:31:14.535Z,54.53
2023-01-30T05:33:42.838Z,44.93
2023-01-30T05:36:15.991Z,127.60
2023-01-30T05:38:44.786Z,88.53
2023-01-30T05:41:15.349Z,74.53
2023-01-30T05:43:45.296Z,83.50
2023-01-30T05:46:13.989Z,82.83
2023-01-30T05:48:45.230Z,78.53
2023-01-30T05:51:22.220Z,76.30
2023-01-30T05:53:53.757Z,93.37
2023-01-30T05:56:23.331Z,92.30
2023-01-30T05:58:53.787Z,97.63
2023-01-30T06:01:23.161Z,71.57
2023-01-30T06:03:52.194Z,39.57
2023-01-30T06:06:20.481Z,29.90
2023-01-30T06:08:49.124Z,29.57
2023-01-30T06:11:17.960Z,47.93
2023-01-30T06:13:46.304Z,28.97
2023-01-30T06:16:17.875Z,31.53
2023-01-30T06:18:49.822Z,30.00
2023-01-30T06:21:18.436Z,25.17
2023-01-30T06:23:46.819Z,23.53
2023-01-30T06:26:15.132Z,27.83
2023-01-30T06:28:44.076Z,25.87
2023-01-30T06:31:16.660Z,25.33
2023-01-30T06:33:44.942Z,27.30
2023-01-30T06:36:13.805Z,22.97
2023-01-30T06:38:42.269Z,24.87
2023-01-30T06:41:10.370Z,30.23
2023-01-30T06:43:38.582Z,24.50
2023-01-30T06:46:06.905Z,24.93
2023-01-30T06:48:35.170Z,23.47
2023-01-30T06:51:03.124Z,23.23
2023-01-30T06:53:32.703Z,22.20
2023-01-30T06:56:02.141Z,26.27
2023-01-30T06:58:32.917Z,33.33
2023-01-30T07:01:03.211Z,30.57
2023-01-30T07:03:32.077Z,30.47
2023-01-30T07:06:03.899Z,27.33
2023-01-30T07:08:33.109Z,31.20
2023-01-30T07:13:45.484Z,25.97
2023-01-30T07:16:15.848Z,26.67
2023-01-30T07:18:44.733Z,34.17
2023-01-30T07:21:13.231Z,30.07
2023-01-30T07:23:42.082Z,28.90
2023-01-30T07:26:18.899Z,28.97
2023-01-30T07:28:47.329Z,37.90
2023-01-30T07:31:15.604Z,28.53
2023-01-30T07:33:47.047Z,30.97
2023-01-30T07:36:15.757Z,32.23
2023-01-30T07:38:47.071Z,32.43
2023-01-30T07:41:15.528Z,51.43
2023-01-30T07:43:43.887Z,41.20
2023-01-30T07:46:12.214Z,39.13
2023-01-30T07:48:40.575Z,40.67
2023-01-30T07:51:11.224Z,35.07
2023-01-30T07:53:39.566Z,36.17
2023-01-30T07:56:14.762Z,35.70
2023-01-30T07:58:43.217Z,33.40
2023-01-30T08:01:16.277Z,34.73
2023-01-30T08:03:46.735Z,31.77
2023-01-30T08:06:16.236Z,27.40
2023-01-30T08:08:47.660Z,33.20
2023-01-30T08:11:16.017Z,29.53
2023-01-30T08:13:44.596Z,35.53
2023-01-30T08:16:12.762Z,34.57
2023-01-30T08:18:41.120Z,34.60
2023-01-30T08:21:10.449Z,33.73
2023-01-30T08:23:38.606Z,32.30
2023-01-30T08:26:06.786Z,44.50
2023-01-30T08:28:34.921Z,39.23
2023-01-30T08:31:03.226Z,38.33
2023-01-30T08:33:32.840Z,37.43
2023-01-30T08:36:01.203Z,29.80
2023-01-30T08:38:30.165Z,27.43
2023-01-30T08:40:59.989Z,28.03
2023-01-30T08:43:29.009Z,37.63
2023-01-30T08:45:57.615Z,34.40
2023-01-30T08:48:28.193Z,39.37
2023-01-30T08:50:57.559Z,41.90
2023-01-30T08:53:26.924Z,42.87
2023-01-30T08:55:55.469Z,46.40
2023-01-30T08:58:23.995Z,45.30
2023-01-30T09:00:52.335Z,39.97
2023-01-30T09:03:20.747Z,42.67
2023-01-30T09:05:57.293Z,43.27
2023-01-30T09:08:25.312Z,41.70
2023-01-30T09:10:53.196Z,46.33
2023-01-30T09:13:34.773Z,34.90
2023-01-30T09:16:04.655Z,37.93
2023-01-30T09:18:33.021Z,36.73
2023-01-30T09:21:06.389Z,33.27
2023-01-30T09:23:35.526Z,37.97
2023-01-30T09:26:05.036Z,32.27
2023-01-30T09:28:33.815Z,25.47
2023-01-30T09:31:03.128Z,28.33
2023-01-30T09:33:31.846Z,30.27
2023-01-30T09:36:00.132Z,27.50
2023-01-30T09:38:28.595Z,30.47
2023-01-30T09:41:00.416Z,29.43
2023-01-30T09:44:06.799Z,30.73
2023-01-30T09:46:55.086Z,28.50
2023-01-30T09:49:29.879Z,33.47
2023-01-30T09:52:16.338Z,26.10
2023-01-30T09:54:46.250Z,31.77
2023-01-30T09:57:25.952Z,32.90
2023-01-30T10:00:06.615Z,22.43
2023-01-30T10:02:43.129Z,19.97
2023-01-30T10:05:14.649Z,19.63
2023-01-30T10:08:09.820Z,23.27
2023-01-30T10:10:55.063Z,28.63
2023-01-30T10:13:36.703Z,22.40
2023-01-30T10:16:28.641Z,19.03
2023-01-30T10:19:20.569Z,25.63
2023-01-30T10:22:10.494Z,20.03
2023-01-30T10:25:03.178Z,23.47
2023-01-30T10:27:33.484Z,22.37
2023-01-30T10:30:06.111Z,21.97
2023-01-30T10:32:43.165Z,23.70
2023-01-30T10:35:21.717Z,20.90
2023-01-30T10:38:06.084Z,17.90
2023-01-30T10:40:59.470Z,26.13
2023-01-30T10:43:39.384Z,15.03
2023-01-30T10:46:31.641Z,27.90
2023-01-30T10:49:23.290Z,18.50
2023-01-30T10:52:13.174Z,23.20
2023-01-30T10:54:55.263Z,26.17
2023-01-30T10:57:38.781Z,17.80
2023-01-30T11:00:18.004Z,23.90
2023-01-30T11:03:07.436Z,20.23
2023-01-30T11:05:44.236Z,16.33
2023-01-30T11:08:26.653Z,19.43
2023-01-30T11:10:55.924Z,19.33
2023-01-30T11:13:35.014Z,20.03
2023-01-30T11:16:09.693Z,18.80
2023-01-30T11:19:18.754Z,17.00
2023-01-30T11:21:43.995Z,16.53
2023-01-30T11:24:27.256Z,19.37
2023-01-30T11:26:56.895Z,15.30
2023-01-30T11:29:30.375Z,17.50
2023-01-30T11:32:07.546Z,16.73
2023-01-30T11:34:35.911Z,21.30
2023-01-30T11:37:31.466Z,15.23
2023-01-30T11:40:00.106Z,21.50
2023-01-30T11:42:32.854Z,22.70
2023-01-30T11:45:16.791Z,19.53
2023-01-30T11:47:57.988Z,17.60
2023-01-30T11:51:32.170Z,23.67
2023-01-30T11:53:43.047Z,20.63
2023-01-30T11:56:31.637Z,19.40
2023-01-30T11:59:15.411Z,22.17
2023-01-30T12:01:45.469Z,22.13
2023-01-30T12:04:16.379Z,19.60
2023-01-30T12:06:47.876Z,23.77
2023-01-30T12:09:31.631Z,16.10
2023-01-30T12:12:04.673Z,23.83
2023-01-30T12:14:41.375Z,21.20
2023-01-30T12:17:26.733Z,21.43
2023-01-30T12:20:06.954Z,20.87
2023-01-30T12:22:42.259Z,19.07
2023-01-30T12:25:14.118Z,22.73
2023-01-30T12:28:24.120Z,20.83
2023-01-30T12:31:36.295Z,32.73
2023-01-30T12:34:05.644Z,18.70
2023-01-30T12:37:00.816Z,22.05
2023-01-30T12:39:44.352Z,22.67
2023-01-30T12:42:40.120Z,24.47
2023-01-30T12:45:25.636Z,23.60
2023-01-30T12:48:09.139Z,24.50
2023-01-30T12:51:01.987Z,18.43
2023-01-30T12:53:58.111Z,32.23
2023-01-30T12:56:39.761Z,31.63
2023-01-30T12:59:23.652Z,31.67
2023-01-30T13:02:19.210Z,22.93
2023-01-30T13:05:05.767Z,32.83
2023-01-30T13:07:47.308Z,27.43
2023-01-30T13:10:33.865Z,24.80
2023-01-30T13:13:10.995Z,26.80
2023-01-30T13:16:08.575Z,23.30
2023-01-30T13:18:56.792Z,30.43
2023-01-30T13:22:01.009Z,22.20
2023-01-30T13:24:41.757Z,27.00
2023-01-30T13:27:18.166Z,31.17
2023-01-30T13:29:49.651Z,27.80
2023-01-30T13:32:34.172Z,23.80
2023-01-30T13:35:05.365Z,29.03
2023-01-30T13:37:34.904Z,35.83
2023-01-30T13:40:17.915Z,26.60
2023-01-30T13:42:53.345Z,28.57
2023-01-30T13:45:33.132Z,26.53
2023-01-30T13:48:18.510Z,30.57
2023-01-30T13:51:23.758Z,29.73
2023-01-30T13:54:04.113Z,25.10
2023-01-30T13:56:44.219Z,19.57
2023-01-30T13:59:54.121Z,18.50
2023-01-30T14:02:26.274Z,14.37
2023-01-30T14:04:56.316Z,24.50
2023-01-30T14:07:28.542Z,18.97
2023-01-30T14:10:15.245Z,13.07
2023-01-30T14:12:48.349Z,16.10
2023-01-30T14:15:17.301Z,18.23
2023-01-30T14:18:19.684Z,21.00
2023-01-30T14:20:53.262Z,17.43
2023-01-30T14:23:35.207Z,18.27
2023-01-30T14:26:03.690Z,18.77
2023-01-30T14:28:32.739Z,22.40
2023-01-30T14:31:04.403Z,24.00
2023-01-30T14:33:48.646Z,18.77
2023-01-30T14:36:16.825Z,20.47
2023-01-30T14:38:57.335Z,19.37
2023-01-30T14:41:27.734Z,22.43
2023-01-30T14:43:56.252Z,16.03
2023-01-30T14:46:26.079Z,19.53
2023-01-30T14:49:05.522Z,20.30
2023-01-30T14:51:39.819Z,18.40
2023-01-30T14:54:17.808Z,18.20
2023-01-30T14:56:59.712Z,18.67
2023-01-30T15:00:18.578Z,22.60
2023-01-30T15:02:53.347Z,19.43
2023-01-30T15:05:35.877Z,21.63
2023-01-30T15:08:15.675Z,23.00
2023-01-30T15:11:14.224Z,20.77
2023-01-30T15:13:58.954Z,25.00
2023-01-30T15:17:07.450Z,25.23
2023-01-30T15:20:07.038Z,29.23
2023-01-30T15:22:38.147Z,29.00
2023-01-30T15:25:40.859Z,24.13
2023-01-30T15:28:37.205Z,24.13
2023-01-30T15:31:15.182Z,25.70
2023-01-30T15:33:48.672Z,27.53
2023-01-30T15:36:28.630Z,27.57
2023-01-30T15:39:04.174Z,30.77
2023-01-30T15:41:41.112Z,34.97
2023-01-30T15:44:49.179Z,30.90
2023-01-30T15:47:40.997Z,29.67
2023-01-30T15:50:12.517Z,30.30
2023-01-30T15:52:48.447Z,30.63
2023-01-30T15:55:31.595Z,29.50
2023-01-30T15:58:21.341Z,38.90
2023-01-30T16:00:54.355Z,31.77
2023-01-30T16:03:25.828Z,28.93
2023-01-30T16:05:56.406Z,26.57
2023-01-30T16:08:34.384Z,32.83
2023-01-30T16:11:05.792Z,34.50
2023-01-30T16:13:35.306Z,31.47
2023-01-30T16:16:13.249Z,29.53
2023-01-30T16:18:53.933Z,38.27
2023-01-30T16:21:29.795Z,37.70
2023-01-30T16:24:18.512Z,30.23
2023-01-30T16:26:49.529Z,31.07
2023-01-30T16:29:23.999Z,29.70
2023-01-30T16:31:55.013Z,31.33
2023-01-30T16:34:37.211Z,27.37
2023-01-30T16:37:21.314Z,29.60
2023-01-30T16:40:17.957Z,32.37
2023-01-30T16:42:57.408Z,28.00
2023-01-30T16:45:35.962Z,31.47
2023-01-30T16:48:23.644Z,26.83
2023-01-30T16:51:01.213Z,27.53
2023-01-30T16:53:31.256Z,31.20
2023-01-30T16:55:59.882Z,33.07
2023-01-30T16:58:32.941Z,41.47
2023-01-30T17:01:05.891Z,39.43
2023-01-30T17:03:39.827Z,29.37
2023-01-30T17:06:16.469Z,45.87
2023-01-30T17:08:59.194Z,37.70
2023-01-30T17:11:41.991Z,35.17
2023-01-30T17:14:30.887Z,35.57
2023-01-30T17:17:08.041Z,37.30
2023-01-30T17:19:36.942Z,40.20
2023-01-30T17:22:07.762Z,41.23
2023-01-30T17:24:36.197Z,46.13
2023-01-30T17:27:05.100Z,47.07
2023-01-30T17:29:42.346Z,43.23
2023-01-30T17:32:15.942Z,59.55
2023-01-30T17:34:44.493Z,66.13
2023-01-30T17:37:24.483Z,55.87
2023-01-30T17:39:55.094Z,63.23
2023-01-30T17:42:24.432Z,59.30
2023-01-30T17:44:54.937Z,61.47
2023-01-30T17:47:26.699Z,59.40
2023-01-30T17:49:57.150Z,64.97
2023-01-30T17:52:25.822Z,63.20
2023-01-30T17:54:54.136Z,71.70
2023-01-30T17:57:25.520Z,71.93
2023-01-30T17:59:55.704Z,64.70
2023-01-30T18:02:24.140Z,50.63
2023-01-30T18:04:52.737Z,49.33
2023-01-30T18:07:24.411Z,43.13
2023-01-30T18:09:55.112Z,48.93
2023-01-30T18:12:23.436Z,55.83
2023-01-30T18:14:51.874Z,58.37
2023-01-30T18:17:20.343Z,50.30
2023-01-30T18:19:52.260Z,50.63
2023-01-30T18:22:22.633Z,71.30
2023-01-30T18:24:50.942Z,66.30
2023-01-30T18:27:19.319Z,71.30
2023-01-30T18:29:48.704Z,80.70
2023-01-30T18:32:18.047Z,69.70
2023-01-30T18:34:49.060Z,69.37
2023-01-30T18:37:18.352Z,56.00
2023-01-30T18:39:51.661Z,52.10
2023-01-30T18:42:19.962Z,52.77
2023-01-30T18:44:50.430Z,50.63
2023-01-30T18:47:27.096Z,41.73
2023-01-30T18:49:55.936Z,38.47
2023-01-30T18:52:24.639Z,43.70
2023-01-30T18:54:54.879Z,34.80
2023-01-30T18:57:23.489Z,38.77
2023-01-30T18:59:51.515Z,36.73
2023-01-30T19:02:20.202Z,29.87
2023-01-30T19:04:49.805Z,25.97
2023-01-30T19:07:18.304Z,23.40
2023-01-30T19:09:47.734Z,24.23
2023-01-30T19:12:34.558Z,19.80
2023-01-30T19:15:03.804Z,26.97
2023-01-30T19:17:33.611Z,29.47
2023-01-30T19:20:04.560Z,19.60
2023-01-30T19:22:33.740Z,20.83
2023-01-30T19:25:05.368Z,23.60
2023-01-30T19:27:36.909Z,23.87
2023-01-30T19:30:06.310Z,19.60
2023-01-30T19:32:35.327Z,26.23
2023-01-30T19:35:05.642Z,21.07
2023-01-30T19:37:37.410Z,18.87
2023-01-30T19:40:12.063Z,23.37
2023-01-30T19:42:44.159Z,18.43
2023-01-30T19:45:13.138Z,15.37
2023-01-30T19:47:46.404Z,15.20
2023-01-30T19:50:14.645Z,13.93
2023-01-30T19:52:47.749Z,15.73
2023-01-30T19:55:19.061Z,16.40
2023-01-30T19:57:47.814Z,13.60
2023-01-30T20:00:16.883Z,15.33
2023-01-30T20:02:48.469Z,13.77
2023-01-30T20:05:23.966Z,12.30
2023-01-30T20:07:51.836Z,21.87
2023-01-30T20:10:20.290Z,14.17
2023-01-30T20:12:49.794Z,12.63
2023-01-30T20:15:18.037Z,12.67
2023-01-30T20:17:46.060Z,21.57
2023-01-30T20:20:14.255Z,26.93
2023-01-30T20:22:42.683Z,16.30
2023-01-30T20:25:11.823Z,22.40
2023-01-30T20:27:40.373Z,14.90
2023-01-30T20:30:09.110Z,14.57
2023-01-30T20:32:37.616Z,12.00
2023-01-30T20:35:06.183Z,11.67
2023-01-30T20:37:34.302Z,14.67
2023-01-30T20:40:05.341Z,11.20
2023-01-30T20:42:33.653Z,15.27
2023-01-30T20:45:04.837Z,12.93
2023-01-30T20:47:38.390Z,20.50
2023-01-30T20:50:07.310Z,11.50
2023-01-30T20:52:37.732Z,15.93
2023-01-30T20:55:06.445Z,12.67
2023-01-30T20:57:34.887Z,14.20
2023-01-30T21:00:06.424Z,12.97
2023-01-30T21:02:35.069Z,13.57
2023-01-30T21:05:06.398Z,12.53
2023-01-30T21:07:34.771Z,12.77
2023-01-30T21:10:03.017Z,15.93
2023-01-30T21:12:50.691Z,51.27
2023-01-30T21:15:19.138Z,14.90
2023-01-30T21:17:50.508Z,10.70
2023-01-30T21:20:23.004Z,13.20
2023-01-30T21:22:52.226Z,12.70
2023-01-30T21:25:20.655Z,13.33
2023-01-30T21:27:48.864Z,11.07
2023-01-30T21:30:17.478Z,12.90
2023-01-30T21:32:45.708Z,11.80
2023-01-30T21:35:15.266Z,10.30
2023-01-30T21:38:03.035Z,10.37
2023-01-30T21:40:50.718Z,11.93
2023-01-30T21:43:19.034Z,10.77
2023-01-30T21:45:49.996Z,13.27
2023-01-30T21:48:18.100Z,13.77
2023-01-30T21:50:47.259Z,13.60
2023-01-30T21:53:16.398Z,10.43
2023-01-30T21:55:53.732Z,14.13
2023-01-30T21:58:22.055Z,12.90
2023-01-30T22:00:50.750Z,14.30
2023-01-30T22:03:19.262Z,12.03
2023-01-30T22:05:47.448Z,13.50
2023-01-30T22:08:15.982Z,13.27
2023-01-30T22:10:44.206Z,10.47
2023-01-30T22:13:12.815Z,11.50
2023-01-30T22:15:41.403Z,10.93
2023-01-30T22:18:11.154Z,11.03
2023-01-30T22:20:39.809Z,13.20
2023-01-30T22:23:12.410Z,11.77
2023-01-30T22:25:40.784Z,11.03
2023-01-30T22:28:10.263Z,15.47
2023-01-30T22:30:38.587Z,10.47
2023-01-30T22:33:08.197Z,13.00
2023-01-30T22:35:37.316Z,11.60
2023-01-30T22:38:06.498Z,13.70
2023-01-30T22:40:35.843Z,15.20
2023-01-30T22:43:04.191Z,15.70
2023-01-30T22:45:36.061Z,13.83
2023-01-30T22:48:04.579Z,14.13
2023-01-30T22:50:34.843Z,17.37
2023-01-30T22:53:05.794Z,15.00
2023-01-30T22:55:38.421Z,16.93
2023-01-30T22:58:06.665Z,15.27
2023-01-30T23:00:37.214Z,18.00
2023-01-30T23:03:06.582Z,15.83
2023-01-30T23:05:36.893Z,15.47
2023-01-30T23:08:05.529Z,20.00
2023-01-30T23:10:33.954Z,18.97
2023-01-30T23:13:08.148Z,15.87
2023-01-30T23:15:43.294Z,16.13
2023-01-30T23:18:30.692Z,21.87
2023-01-30T23:20:59.507Z,12.67
2023-01-30T23:23:29.468Z,16.53
2023-01-30T23:25:57.565Z,14.27
2023-01-30T23:28:27.937Z,11.50
2023-01-30T23:30:55.830Z,12.57
2023-01-30T23:33:27.262Z,12.93
2023-01-30T23:35:55.420Z,12.83
2023-01-30T23:38:24.431Z,11.47
2023-01-30T23:41:14.480Z,13.67
2023-01-30T23:43:44.184Z,19.57
2023-01-30T23:46:24.149Z,12.77
2023-01-30T23:48:58.994Z,13.37
2023-01-30T23:51:29.531Z,12.33
2023-01-30T23:53:58.499Z,14.17
2023-01-30T23:56:28.515Z,13.13
2023-01-30T23:58:57.417Z,12.33
